createdAt,value
2023-05-12T00:00:02.816Z,99.99
2023-05-12T00:01:02.799Z,99.99
2023-05-12T00:02:02.796Z,99.99
2023-05-12T00:03:02.832Z,99.99
2023-05-12T00:04:03.032Z,99.99
2023-05-12T00:05:02.796Z,99.99
2023-05-12T00:06:02.738Z,99.99
2023-05-12T00:07:02.731Z,99.99
2023-05-12T00:08:02.712Z,99.99
2023-05-12T00:09:02.722Z,99.99
2023-05-12T00:10:02.701Z,99.99
2023-05-12T00:11:02.688Z,99.99
2023-05-12T00:12:02.662Z,99.99
2023-05-12T00:13:02.680Z,99.99
2023-05-12T00:14:02.651Z,99.99
2023-05-12T00:15:02.641Z,99.99
2023-05-12T00:16:02.668Z,99.99
2023-05-12T00:17:02.624Z,99.99
2023-05-12T00:18:02.655Z,99.99
2023-05-12T00:19:02.627Z,99.99
2023-05-12T00:20:02.593Z,99.99
2023-05-12T00:21:02.557Z,99.99
2023-05-12T00:22:02.586Z,99.99
2023-05-12T00:23:02.559Z,99.99
2023-05-12T00:24:02.541Z,99.99
2023-05-12T00:25:02.519Z,99.99
2023-05-12T00:26:02.517Z,99.99
2023-05-12T00:27:02.487Z,99.99
2023-05-12T00:28:02.502Z,99.99
2023-05-12T00:29:02.473Z,99.99
2023-05-12T00:30:02.460Z,99.99
2023-05-12T00:31:02.471Z,99.99
2023-05-12T00:32:02.472Z,99.99
2023-05-12T00:33:02.486Z,99.99
2023-05-12T00:34:03.439Z,99.99
2023-05-12T00:35:02.411Z,99.99
2023-05-12T00:36:02.403Z,99.99
2023-05-12T00:37:02.407Z,99.99
2023-05-12T00:38:02.395Z,99.99
2023-05-12T00:39:02.480Z,99.99
2023-05-12T00:40:02.342Z,99.99
2023-05-12T00:41:02.351Z,99.99
2023-05-12T00:42:02.334Z,99.99
2023-05-12T00:43:02.324Z,99.99
2023-05-12T00:44:02.315Z,99.99
2023-05-12T00:45:02.315Z,99.99
2023-05-12T00:46:02.372Z,99.99
2023-05-12T00:47:02.278Z,99.99
2023-05-12T00:48:02.321Z,99.99
2023-05-12T00:49:02.261Z,99.99
2023-05-12T00:50:02.256Z,99.99
2023-05-12T00:51:02.246Z,99.99
2023-05-12T00:52:02.216Z,99.99
2023-05-12T00:53:02.193Z,99.99
2023-05-12T00:54:02.220Z,99.99
2023-05-12T00:55:02.188Z,99.99
2023-05-12T00:56:02.172Z,99.99
2023-05-12T00:57:02.157Z,99.99
2023-05-12T00:58:02.160Z,99.99
2023-05-12T00:59:02.153Z,99.99
2023-05-12T01:00:02.125Z,99.99
2023-05-12T01:01:02.147Z,99.99
2023-05-12T01:02:02.168Z,99.99
2023-05-12T01:03:02.228Z,99.99
2023-05-12T01:04:02.095Z,99.99
2023-05-12T01:05:02.135Z,99.99
2023-05-12T01:06:02.051Z,99.99
2023-05-12T01:07:03.039Z,99.99
2023-05-12T01:08:02.027Z,99.99
2023-05-12T01:09:02.014Z,99.99
2023-05-12T01:10:02.031Z,99.99
2023-05-12T01:11:01.992Z,99.99
2023-05-12T01:12:01.970Z,99.99
2023-05-12T01:13:02.959Z,99.99
2023-05-12T01:14:01.978Z,99.99
2023-05-12T01:15:01.974Z,99.99
2023-05-12T01:16:01.938Z,99.99
2023-05-12T01:17:01.981Z,99.99
2023-05-12T01:18:02.953Z,99.99
2023-05-12T01:19:01.958Z,99.99
2023-05-12T01:20:01.911Z,99.99
2023-05-12T01:21:01.909Z,99.99
2023-05-12T01:22:01.878Z,99.99
2023-05-12T01:23:01.864Z,99.99
2023-05-12T01:24:01.828Z,99.99
2023-05-12T01:25:01.870Z,99.99
2023-05-12T01:26:01.826Z,99.99
2023-05-12T01:27:01.840Z,99.99
2023-05-12T01:28:01.814Z,99.99
2023-05-12T01:29:01.795Z,99.99
2023-05-12T01:30:01.781Z,99.99
2023-05-12T01:31:01.828Z,99.99
2023-05-12T01:32:01.789Z,99.99
2023-05-12T01:33:01.870Z,99.99
2023-05-12T01:34:01.735Z,99.99
2023-05-12T01:35:01.730Z,99.99
2023-05-12T01:36:01.716Z,99.99
2023-05-12T01:37:01.719Z,99.99
2023-05-12T01:38:01.688Z,99.99
2023-05-12T01:39:01.663Z,99.99
2023-05-12T01:40:01.703Z,99.99
2023-05-12T01:41:01.673Z,99.99
2023-05-12T01:42:01.647Z,99.99
2023-05-12T01:43:01.634Z,99.99
2023-05-12T01:44:01.629Z,99.99
2023-05-12T01:45:01.607Z,99.99
2023-05-12T01:46:01.649Z,99.99
2023-05-12T01:47:01.583Z,99.99
2023-05-12T01:48:01.660Z,99.99
2023-05-12T01:49:01.573Z,99.99
2023-05-12T01:50:01.549Z,99.99
2023-05-12T01:51:01.526Z,99.99
2023-05-12T01:52:01.529Z,99.99
2023-05-12T01:53:01.543Z,99.99
2023-05-12T01:54:01.500Z,99.99
2023-05-12T01:55:01.504Z,99.99
2023-05-12T01:56:01.488Z,99.99
2023-05-12T01:57:01.471Z,99.99
2023-05-12T01:58:01.474Z,99.99
2023-05-12T01:59:01.497Z,99.99
2023-05-12T02:00:01.440Z,99.99
2023-05-12T02:01:01.428Z,99.99
2023-05-12T02:02:01.463Z,99.99
2023-05-12T02:03:01.482Z,99.99
2023-05-12T02:04:01.505Z,99.99
2023-05-12T02:05:33.277Z,99.99
2023-05-12T02:06:01.394Z,99.99
2023-05-12T02:07:01.348Z,99.99
2023-05-12T02:08:01.360Z,99.99
2023-05-12T02:09:01.359Z,99.99
2023-05-12T02:10:01.339Z,99.99
2023-05-12T02:11:01.301Z,99.99
2023-05-12T02:12:01.339Z,99.99
2023-05-12T02:13:01.301Z,99.99
2023-05-12T02:14:01.291Z,99.99
2023-05-12T02:15:01.347Z,99.99
2023-05-12T02:16:01.310Z,99.99
2023-05-12T02:17:01.273Z,99.99
2023-05-12T02:18:01.254Z,99.99
2023-05-12T02:19:01.357Z,99.99
2023-05-12T02:20:01.275Z,99.99
2023-05-12T02:21:01.217Z,99.99
2023-05-12T02:22:01.180Z,99.99
2023-05-12T02:23:01.204Z,99.99
2023-05-12T02:24:01.194Z,99.99
2023-05-12T02:25:01.154Z,99.99
2023-05-12T02:26:01.184Z,99.99
2023-05-12T02:27:01.159Z,99.99
2023-05-12T02:28:01.164Z,99.99
2023-05-12T02:29:01.112Z,99.99
2023-05-12T02:30:01.132Z,99.99
2023-05-12T02:31:01.089Z,99.99
2023-05-12T02:32:01.128Z,99.99
2023-05-12T02:33:01.159Z,99.99
2023-05-12T02:34:01.050Z,99.99
2023-05-12T02:35:01.077Z,99.99
2023-05-12T02:36:01.118Z,99.99
2023-05-12T02:37:01.044Z,99.99
2023-05-12T02:38:01.012Z,99.99
2023-05-12T02:39:01.055Z,99.99
2023-05-12T02:40:00.996Z,99.99
2023-05-12T02:41:01.007Z,99.99
2023-05-12T02:42:01.021Z,99.99
2023-05-12T02:43:00.973Z,99.99
2023-05-12T02:44:00.936Z,99.99
2023-05-12T02:45:00.974Z,99.99
2023-05-12T02:46:00.993Z,99.99
2023-05-12T02:47:00.944Z,99.99
2023-05-12T02:48:01.039Z,99.99
2023-05-12T02:49:00.936Z,99.99
2023-05-12T02:50:00.885Z,99.99
2023-05-12T02:51:00.918Z,99.99
2023-05-12T02:52:00.903Z,99.99
2023-05-12T02:53:00.885Z,99.99
2023-05-12T02:54:00.850Z,99.99
2023-05-12T02:55:00.857Z,99.99
2023-05-12T02:56:00.811Z,99.99
2023-05-12T02:57:00.834Z,99.99
2023-05-12T02:58:00.821Z,99.99
2023-05-12T02:59:00.798Z,99.99
2023-05-12T03:00:00.773Z,99.99
2023-05-12T03:01:10.134Z,99.99
2023-05-12T03:02:02.851Z,99.99
2023-05-12T03:03:00.878Z,99.99
2023-05-12T03:04:00.758Z,99.99
2023-05-12T03:05:00.741Z,99.99
2023-05-12T03:06:00.718Z,99.99
2023-05-12T03:07:00.720Z,99.99
2023-05-12T03:08:00.718Z,99.99
2023-05-12T03:09:00.677Z,99.99
2023-05-12T03:10:01.677Z,99.99
2023-05-12T03:11:00.678Z,99.99
2023-05-12T03:12:00.657Z,99.99
2023-05-12T03:13:00.669Z,99.99
2023-05-12T03:14:00.646Z,99.99
2023-05-12T03:15:00.615Z,99.99
2023-05-12T03:16:01.860Z,99.99
2023-05-12T03:17:00.661Z,99.99
2023-05-12T03:18:01.626Z,99.99
2023-05-12T03:19:00.647Z,99.99
2023-05-12T03:20:00.546Z,99.99
2023-05-12T03:21:00.564Z,99.99
2023-05-12T03:22:00.579Z,99.99
2023-05-12T03:23:00.544Z,99.99
2023-05-12T03:24:00.519Z,99.99
2023-05-12T03:25:00.531Z,99.99
2023-05-12T03:26:00.530Z,99.99
2023-05-12T03:27:00.479Z,99.99
2023-05-12T03:28:00.504Z,99.99
2023-05-12T03:29:00.460Z,99.99
2023-05-12T03:30:00.450Z,99.99
2023-05-12T03:31:00.520Z,99.99
2023-05-12T03:32:00.473Z,99.99
2023-05-12T03:33:00.490Z,99.99
2023-05-12T03:34:00.458Z,99.99
2023-05-12T03:35:00.425Z,99.99
2023-05-12T03:36:00.376Z,99.99
2023-05-12T03:37:00.433Z,99.99
2023-05-12T03:38:00.390Z,99.99
2023-05-12T03:39:00.376Z,99.99
2023-05-12T03:40:00.356Z,99.99
2023-05-12T03:41:00.331Z,99.99
2023-05-12T03:42:00.345Z,99.99
2023-05-12T03:43:00.337Z,99.99
2023-05-12T03:44:00.326Z,99.99
2023-05-12T03:45:00.301Z,99.99
2023-05-12T03:46:00.354Z,99.99
2023-05-12T03:47:00.333Z,99.99
2023-05-12T03:48:00.328Z,99.99
2023-05-12T03:49:00.265Z,99.99
2023-05-12T03:50:00.224Z,99.99
2023-05-12T03:51:00.221Z,99.99
2023-05-12T03:52:00.232Z,99.99
2023-05-12T03:53:00.226Z,99.99
2023-05-12T03:54:00.174Z,99.99
2023-05-12T03:55:00.212Z,99.99
2023-05-12T03:56:00.204Z,99.99
2023-05-12T03:57:00.165Z,99.99
2023-05-12T03:58:00.204Z,99.99
2023-05-12T03:59:00.159Z,99.99
2023-05-12T04:00:00.181Z,99.99
2023-05-12T04:01:00.185Z,99.99
2023-05-12T04:02:00.197Z,99.99
2023-05-12T04:03:00.193Z,99.99
2023-05-12T04:04:00.175Z,99.99
2023-05-12T04:05:00.138Z,99.99
2023-05-12T04:06:00.120Z,99.99
2023-05-12T04:07:00.049Z,99.99
2023-05-12T04:08:00.094Z,99.99
2023-05-12T04:09:00.060Z,99.99
2023-05-12T04:10:00.058Z,99.99
2023-05-12T04:11:00.021Z,99.99
2023-05-12T04:12:00.014Z,99.99
2023-05-12T04:12:59.992Z,99.99
2023-05-12T04:13:59.970Z,99.99
2023-05-12T04:14:59.964Z,99.99
2023-05-12T04:16:00.026Z,99.99
2023-05-12T04:16:59.983Z,99.99
2023-05-12T04:18:00.004Z,99.99
2023-05-12T04:18:59.965Z,99.99
2023-05-12T04:19:59.900Z,99.99
2023-05-12T04:20:59.892Z,99.99
2023-05-12T04:21:59.901Z,99.99
2023-05-12T04:22:59.911Z,99.99
2023-05-12T04:23:59.851Z,99.99
2023-05-12T04:24:59.849Z,99.99
2023-05-12T04:25:59.866Z,99.99
2023-05-12T04:26:59.837Z,99.99
2023-05-12T04:27:59.832Z,99.99
2023-05-12T04:28:59.810Z,99.99
2023-05-12T04:29:59.800Z,99.99
2023-05-12T04:30:59.767Z,99.99
2023-05-12T04:31:59.845Z,99.99
2023-05-12T04:32:59.793Z,99.99
2023-05-12T04:33:59.752Z,99.99
2023-05-12T04:34:59.738Z,99.99
2023-05-12T04:35:59.752Z,99.99
2023-05-12T04:36:59.727Z,99.99
2023-05-12T04:37:59.716Z,99.99
2023-05-12T04:38:59.724Z,99.99
2023-05-12T04:39:59.682Z,99.99
2023-05-12T04:40:59.695Z,99.99
2023-05-12T04:41:59.678Z,99.99
2023-05-12T04:42:59.641Z,99.99
2023-05-12T04:44:00.271Z,99.99
2023-05-12T04:45:00.671Z,99.99
2023-05-12T04:46:00.526Z,99.99
2023-05-12T04:47:00.625Z,99.99
2023-05-12T04:47:59.644Z,99.99
2023-05-12T04:48:59.591Z,99.99
2023-05-12T04:49:59.573Z,99.99
2023-05-12T04:50:59.570Z,99.99
2023-05-12T04:51:59.573Z,99.99
2023-05-12T04:52:59.538Z,99.99
2023-05-12T04:53:59.526Z,99.99
2023-05-12T04:54:59.536Z,99.99
2023-05-12T04:55:59.494Z,99.99
2023-05-12T04:56:59.496Z,99.80
2023-05-12T04:57:59.525Z,99.70
2023-05-12T04:58:59.485Z,99.50
2023-05-12T04:59:59.454Z,99.40
2023-05-12T05:00:59.472Z,99.09
2023-05-12T05:01:59.488Z,99.19
2023-05-12T05:02:59.489Z,98.84
2023-05-12T05:03:59.467Z,99.19
2023-05-12T05:04:59.432Z,98.74
2023-05-12T05:05:59.409Z,98.84
2023-05-12T05:06:59.390Z,98.69
2023-05-12T05:07:59.398Z,98.69
2023-05-12T05:08:59.362Z,98.59
2023-05-12T05:09:59.381Z,98.69
2023-05-12T05:10:59.386Z,98.90
2023-05-12T05:11:59.325Z,98.65
2023-05-12T05:12:59.356Z,98.34
2023-05-12T05:13:59.327Z,97.02
2023-05-12T05:14:59.313Z,96.92
2023-05-12T05:15:59.318Z,96.67
2023-05-12T05:16:59.258Z,96.36
2023-05-12T05:18:01.497Z,96.56
2023-05-12T05:18:59.334Z,96.31
2023-05-12T05:19:59.919Z,95.70
2023-05-12T05:21:00.550Z,95.81
2023-05-12T05:21:59.214Z,95.00
2023-05-12T05:22:59.222Z,94.59
2023-05-12T05:23:59.199Z,94.69
2023-05-12T05:24:59.179Z,94.24
2023-05-12T05:25:59.215Z,94.64
2023-05-12T05:26:59.151Z,93.73
2023-05-12T05:27:59.146Z,94.04
2023-05-12T05:28:59.145Z,93.32
2023-05-12T05:29:59.101Z,92.82
2023-05-12T05:30:59.130Z,92.61
2023-05-12T05:31:59.126Z,92.61
2023-05-12T05:32:59.125Z,92.10
2023-05-12T05:33:59.116Z,92.10
2023-05-12T05:34:59.109Z,91.29
2023-05-12T05:35:59.060Z,91.39
2023-05-12T05:36:59.046Z,90.99
2023-05-12T05:37:59.069Z,91.19
2023-05-12T05:38:59.022Z,90.68
2023-05-12T05:39:58.996Z,90.99
2023-05-12T05:40:58.977Z,90.78
2023-05-12T05:41:59.019Z,91.29
2023-05-12T05:42:58.979Z,91.49
2023-05-12T05:43:58.962Z,91.80
2023-05-12T05:44:58.952Z,92.00
2023-05-12T05:45:58.936Z,92.16
2023-05-12T05:46:59.020Z,91.86
2023-05-12T05:47:59.036Z,91.65
2023-05-12T05:48:58.897Z,91.14
2023-05-12T05:49:58.903Z,90.74
2023-05-12T05:50:58.892Z,90.49
2023-05-12T05:51:58.856Z,90.39
2023-05-12T05:52:58.859Z,90.39
2023-05-12T05:53:58.852Z,91.00
2023-05-12T05:54:58.868Z,90.55
2023-05-12T05:55:58.848Z,90.19
2023-05-12T05:56:58.803Z,88.97
2023-05-12T05:57:58.821Z,87.59
2023-05-12T05:58:58.799Z,88.71
2023-05-12T05:59:58.786Z,88.87
2023-05-12T06:00:58.749Z,90.19
2023-05-12T06:01:58.795Z,89.64
2023-05-12T06:02:58.815Z,90.05
2023-05-12T06:03:58.789Z,89.94
2023-05-12T06:04:58.718Z,89.74
2023-05-12T06:05:58.719Z,89.74
2023-05-12T06:06:58.666Z,90.00
2023-05-12T06:07:58.705Z,89.70
2023-05-12T06:08:58.685Z,89.59
2023-05-12T06:09:58.656Z,89.55
2023-05-12T06:10:58.635Z,87.52
2023-05-12T06:11:58.637Z,87.22
2023-05-12T06:12:58.629Z,88.03
2023-05-12T06:13:58.606Z,87.83
2023-05-12T06:14:58.609Z,86.55
2023-05-12T06:15:58.583Z,87.67
2023-05-12T06:16:58.851Z,87.26
2023-05-12T06:17:58.649Z,87.71
2023-05-12T06:18:58.648Z,87.30
2023-05-12T06:19:58.540Z,87.71
2023-05-12T06:20:58.569Z,88.21
2023-05-12T06:21:58.566Z,88.42
2023-05-12T06:22:58.476Z,88.52
2023-05-12T06:23:58.509Z,88.42
2023-05-12T06:24:58.511Z,90.11
2023-05-12T06:25:58.520Z,89.80
2023-05-12T06:26:58.491Z,88.89
2023-05-12T06:27:58.494Z,89.09
2023-05-12T06:28:58.466Z,88.01
2023-05-12T06:29:58.413Z,88.52
2023-05-12T06:30:58.421Z,88.93
2023-05-12T06:31:58.470Z,89.94
2023-05-12T06:32:58.466Z,90.00
2023-05-12T06:33:58.382Z,89.90
2023-05-12T06:34:58.393Z,88.34
2023-05-12T06:35:58.413Z,88.03
2023-05-12T06:36:58.418Z,87.14
2023-05-12T06:37:58.383Z,87.95
2023-05-12T06:38:58.390Z,87.34
2023-05-12T06:39:58.334Z,86.08
2023-05-12T06:40:58.364Z,85.21
2023-05-12T06:41:58.332Z,84.10
2023-05-12T06:42:58.292Z,83.90
2023-05-12T06:43:58.271Z,84.91
2023-05-12T06:44:58.272Z,84.95
2023-05-12T06:45:58.337Z,85.36
2023-05-12T06:46:58.290Z,85.90
2023-05-12T06:47:58.360Z,86.10
2023-05-12T06:48:58.217Z,86.00
2023-05-12T06:49:58.273Z,86.00
2023-05-12T06:50:58.186Z,85.90
2023-05-12T06:51:58.259Z,85.86
2023-05-12T06:52:58.178Z,85.76
2023-05-12T06:53:58.207Z,85.31
2023-05-12T06:54:58.189Z,86.29
2023-05-12T06:55:58.128Z,85.21
2023-05-12T06:56:58.134Z,84.67
2023-05-12T06:57:58.151Z,84.36
2023-05-12T06:58:58.110Z,83.04
2023-05-12T06:59:58.142Z,83.04
2023-05-12T07:00:58.121Z,83.76
2023-05-12T07:01:58.306Z,85.52
2023-05-12T07:02:58.113Z,85.07
2023-05-12T07:03:58.097Z,84.93
2023-05-12T07:04:58.053Z,84.02
2023-05-12T07:05:58.069Z,83.41
2023-05-12T07:06:58.039Z,82.97
2023-05-12T07:07:58.029Z,82.10
2023-05-12T07:08:58.001Z,81.49
2023-05-12T07:09:58.068Z,80.18
2023-05-12T07:10:57.986Z,81.67
2023-05-12T07:11:57.980Z,83.09
2023-05-12T07:12:57.958Z,84.34
2023-05-12T07:13:58.017Z,83.12
2023-05-12T07:14:57.939Z,83.53
2023-05-12T07:15:57.981Z,84.24
2023-05-12T07:16:57.959Z,84.04
2023-05-12T07:17:57.905Z,83.33
2023-05-12T07:18:57.951Z,84.24
2023-05-12T07:19:57.943Z,83.53
2023-05-12T07:20:57.882Z,82.58
2023-05-12T07:21:57.873Z,82.68
2023-05-12T07:22:57.950Z,83.69
2023-05-12T07:23:57.822Z,82.64
2023-05-12T07:24:57.859Z,82.75
2023-05-12T07:25:57.910Z,82.30
2023-05-12T07:26:57.772Z,82.46
2023-05-12T07:27:57.814Z,82.16
2023-05-12T07:28:57.788Z,81.31
2023-05-12T07:29:57.785Z,80.00
2023-05-12T07:30:58.813Z,79.79
2023-05-12T07:31:57.772Z,79.08
2023-05-12T07:32:57.910Z,79.75
2023-05-12T07:33:57.699Z,79.35
2023-05-12T07:34:57.780Z,78.85
2023-05-12T07:35:57.725Z,78.95
2023-05-12T07:36:57.706Z,78.75
2023-05-12T07:37:57.665Z,77.90
2023-05-12T07:38:57.705Z,78.44
2023-05-12T07:39:57.680Z,78.24
2023-05-12T07:40:57.684Z,78.91
2023-05-12T07:41:57.618Z,78.71
2023-05-12T07:42:57.704Z,78.10
2023-05-12T07:43:57.637Z,76.72
2023-05-12T07:44:57.634Z,78.04
2023-05-12T07:45:57.661Z,76.97
2023-05-12T07:46:57.665Z,78.28
2023-05-12T07:47:57.578Z,78.99
2023-05-12T07:48:57.580Z,78.78
2023-05-12T07:49:57.631Z,79.05
2023-05-12T07:50:57.596Z,78.44
2023-05-12T07:51:57.543Z,78.04
2023-05-12T07:52:57.591Z,77.03
2023-05-12T07:53:57.523Z,78.04
2023-05-12T07:54:57.515Z,76.69
2023-05-12T07:55:57.564Z,76.59
2023-05-12T07:56:57.521Z,76.75
2023-05-12T07:57:57.461Z,76.86
2023-05-12T07:58:57.485Z,77.26
2023-05-12T07:59:57.445Z,76.79
2023-05-12T08:00:57.519Z,78.44
2023-05-12T08:01:57.490Z,78.71
2023-05-12T08:02:57.627Z,77.19
2023-05-12T08:03:57.497Z,76.48
2023-05-12T08:04:57.394Z,75.88
2023-05-12T08:06:30.239Z,74.22
2023-05-12T08:06:57.400Z,74.69
2023-05-12T08:07:57.370Z,73.35
2023-05-12T08:08:57.388Z,72.44
2023-05-12T08:09:57.362Z,71.94
2023-05-12T08:10:57.319Z,71.60
2023-05-12T08:11:57.327Z,70.76
2023-05-12T08:12:57.309Z,70.79
2023-05-12T08:13:57.327Z,71.00
2023-05-12T08:14:57.307Z,70.56
2023-05-12T08:15:57.300Z,69.75
2023-05-12T08:16:57.328Z,70.06
2023-05-12T08:17:57.266Z,71.06
2023-05-12T08:18:57.307Z,71.03
2023-05-12T08:19:57.242Z,71.47
2023-05-12T08:20:57.253Z,71.57
2023-05-12T08:21:57.239Z,71.53
2023-05-12T08:22:57.197Z,71.10
2023-05-12T08:23:57.250Z,71.40
2023-05-12T08:24:57.166Z,70.36
2023-05-12T08:25:57.175Z,69.05
2023-05-12T08:26:57.156Z,69.32
2023-05-12T08:27:58.171Z,69.35
2023-05-12T08:28:57.152Z,68.85
2023-05-12T08:29:57.141Z,68.31
2023-05-12T08:30:57.164Z,67.54
2023-05-12T08:31:57.103Z,68.30
2023-05-12T08:32:57.101Z,69.21
2023-05-12T08:34:09.091Z,69.21
2023-05-12T08:34:59.087Z,70.46
2023-05-12T08:35:57.052Z,70.62
2023-05-12T08:36:57.054Z,70.19
2023-05-12T08:37:57.032Z,68.01
2023-05-12T08:38:57.040Z,68.37
2023-05-12T08:39:57.072Z,68.24
2023-05-12T08:40:56.986Z,68.41
2023-05-12T08:41:57.013Z,67.10
2023-05-12T08:42:57.931Z,67.50
2023-05-12T08:43:57.004Z,66.60
2023-05-12T08:44:56.952Z,67.84
2023-05-12T08:45:56.994Z,67.94
2023-05-12T08:46:56.984Z,68.54
2023-05-12T08:47:56.947Z,69.35
2023-05-12T08:48:56.938Z,68.65
2023-05-12T08:49:56.891Z,68.24
2023-05-12T08:50:56.903Z,68.77
2023-05-12T08:51:58.280Z,69.48
2023-05-12T08:52:57.867Z,68.54
2023-05-12T08:53:56.962Z,68.31
2023-05-12T08:54:56.916Z,68.21
2023-05-12T08:57:09.408Z,69.32
2023-05-12T08:57:57.894Z,68.61
2023-05-12T08:58:56.803Z,68.51
2023-05-12T08:59:56.789Z,68.65
2023-05-12T09:00:56.853Z,70.39
2023-05-12T09:01:56.846Z,68.31
2023-05-12T09:02:56.798Z,67.47
2023-05-12T09:03:56.808Z,68.18
2023-05-12T09:04:56.756Z,68.58
2023-05-12T09:05:56.759Z,70.46
2023-05-12T09:06:57.709Z,68.55
2023-05-12T09:07:56.885Z,67.54
2023-05-12T09:08:57.328Z,67.68
2023-05-12T09:09:56.717Z,68.08
2023-05-12T09:10:56.666Z,68.58
2023-05-12T09:11:56.661Z,69.79
2023-05-12T09:12:56.668Z,68.15
2023-05-12T09:13:56.650Z,68.55
2023-05-12T09:14:56.624Z,69.25
2023-05-12T09:15:56.671Z,68.24
2023-05-12T09:16:56.620Z,66.74
2023-05-12T09:17:56.633Z,66.27
2023-05-12T09:18:56.767Z,65.86
2023-05-12T09:19:56.667Z,66.33
2023-05-12T09:20:56.572Z,67.54
2023-05-12T09:21:56.584Z,66.10
2023-05-12T09:22:56.544Z,65.93
2023-05-12T09:23:56.549Z,66.71
2023-05-12T09:24:56.552Z,65.90
2023-05-12T09:25:56.514Z,64.06
2023-05-12T09:26:56.522Z,66.87
2023-05-12T09:27:56.494Z,64.99
2023-05-12T09:28:56.498Z,68.31
2023-05-12T09:29:59.668Z,67.47
2023-05-12T09:30:57.517Z,66.37
2023-05-12T09:31:56.509Z,65.67
2023-05-12T09:32:56.511Z,66.24
2023-05-12T09:33:56.470Z,64.63
2023-05-12T09:34:56.433Z,66.34
2023-05-12T09:35:56.406Z,65.91
2023-05-12T09:36:56.542Z,64.30
2023-05-12T09:37:56.401Z,64.27
2023-05-12T09:38:56.370Z,64.27
2023-05-12T09:39:56.368Z,64.43
2023-05-12T09:40:56.369Z,63.93
2023-05-12T09:41:56.442Z,61.96
2023-05-12T09:42:56.337Z,63.33
2023-05-12T09:43:56.340Z,62.93
2023-05-12T09:44:56.326Z,62.16
2023-05-12T09:45:56.303Z,62.26
2023-05-12T09:46:56.297Z,64.30
2023-05-12T09:47:56.327Z,63.96
2023-05-12T09:48:56.286Z,63.64
2023-05-12T09:49:56.267Z,61.93
2023-05-12T09:50:56.268Z,62.03
2023-05-12T09:51:56.236Z,63.73
2023-05-12T09:52:56.401Z,64.01
2023-05-12T09:53:56.216Z,64.11
2023-05-12T09:54:56.205Z,63.57
2023-05-12T09:55:56.220Z,61.74
2023-05-12T09:56:56.167Z,64.37
2023-05-12T09:57:56.217Z,64.31
2023-05-12T09:58:56.166Z,64.21
2023-05-12T09:59:56.160Z,64.11
2023-05-12T10:01:13.629Z,63.67
2023-05-12T10:01:58.268Z,63.14
2023-05-12T10:02:56.236Z,61.51
2023-05-12T10:03:56.097Z,61.01
2023-05-12T10:04:56.175Z,61.41
2023-05-12T10:05:56.126Z,60.91
2023-05-12T10:06:56.104Z,61.91
2023-05-12T10:07:56.077Z,62.38
2023-05-12T10:08:56.044Z,61.11
2023-05-12T10:09:56.076Z,61.01
2023-05-12T10:10:56.026Z,61.41
2023-05-12T10:11:56.002Z,61.18
2023-05-12T10:12:56.011Z,60.42
2023-05-12T10:13:56.017Z,59.06
2023-05-12T10:14:56.023Z,58.34
2023-05-12T10:15:55.964Z,57.01
2023-05-12T10:16:55.999Z,57.61
2023-05-12T10:17:55.996Z,57.04
2023-05-12T10:18:56.006Z,57.93
2023-05-12T10:19:55.948Z,59.79
2023-05-12T10:20:55.917Z,59.06
2023-05-12T10:21:55.915Z,58.26
2023-05-12T10:22:55.915Z,58.29
2023-05-12T10:23:55.966Z,62.68
2023-05-12T10:24:55.918Z,62.98
2023-05-12T10:25:55.875Z,62.02
2023-05-12T10:26:55.860Z,60.62
2023-05-12T10:27:55.876Z,57.09
2023-05-12T10:28:55.821Z,57.55
2023-05-12T10:29:55.971Z,58.45
2023-05-12T10:30:55.876Z,58.52
2023-05-12T10:31:55.862Z,57.50
2023-05-12T10:32:55.809Z,56.67
2023-05-12T10:33:55.794Z,54.29
2023-05-12T10:34:56.000Z,52.94
2023-05-12T10:35:55.768Z,52.27
2023-05-12T10:36:55.766Z,52.51
2023-05-12T10:37:55.721Z,50.68
2023-05-12T10:38:55.708Z,50.75
2023-05-12T10:39:55.714Z,50.63
2023-05-12T10:40:55.728Z,50.50
2023-05-12T10:41:55.745Z,49.41
2023-05-12T10:42:55.728Z,48.61
2023-05-12T10:43:55.654Z,48.71
2023-05-12T10:44:55.682Z,47.08
2023-05-12T10:45:55.903Z,46.86
2023-05-12T10:46:55.647Z,46.46
2023-05-12T10:47:55.693Z,42.17
2023-05-12T10:48:55.605Z,41.28
2023-05-12T10:49:55.657Z,42.05
2023-05-12T10:50:55.596Z,42.69
2023-05-12T10:51:55.592Z,42.23
2023-05-12T10:52:55.951Z,42.63
2023-05-12T10:53:55.591Z,42.93
2023-05-12T10:54:55.566Z,45.61
2023-05-12T10:55:55.820Z,46.60
2023-05-12T10:56:55.633Z,45.93
2023-05-12T10:57:55.734Z,46.33
2023-05-12T10:58:55.744Z,46.42
2023-05-12T10:59:56.105Z,46.62
2023-05-12T11:01:55.823Z,47.14
2023-05-12T11:02:59.267Z,47.05
2023-05-12T11:03:57.566Z,46.65
2023-05-12T11:04:55.653Z,47.34
2023-05-12T11:05:55.783Z,47.74
2023-05-12T11:06:56.136Z,46.72
2023-05-12T11:07:55.583Z,47.10
2023-05-12T11:08:57.068Z,46.83
2023-05-12T11:09:59.263Z,48.44
2023-05-12T11:10:57.957Z,49.46
2023-05-12T11:11:56.494Z,49.16
2023-05-12T11:12:55.393Z,48.88
2023-05-12T11:13:55.372Z,49.06
2023-05-12T11:14:55.373Z,48.50
2023-05-12T11:15:55.375Z,47.83
2023-05-12T11:16:55.329Z,49.87
2023-05-12T11:17:55.366Z,51.29
2023-05-12T11:18:55.337Z,51.20
2023-05-12T11:19:55.311Z,50.90
2023-05-12T11:20:55.273Z,52.39
2023-05-12T11:21:55.287Z,50.57
2023-05-12T11:22:55.292Z,50.27
2023-05-12T11:23:55.252Z,50.07
2023-05-12T11:24:55.258Z,50.47
2023-05-12T11:25:55.262Z,50.65
2023-05-12T11:26:55.220Z,50.27
2023-05-12T11:27:55.228Z,50.47
2023-05-12T11:28:55.193Z,49.27
2023-05-12T11:29:55.189Z,50.05
2023-05-12T11:30:55.829Z,48.93
2023-05-12T11:31:55.184Z,47.93
2023-05-12T11:32:55.164Z,49.03
2023-05-12T11:34:04.752Z,49.13
2023-05-12T11:34:57.143Z,47.99
2023-05-12T11:35:55.121Z,47.77
2023-05-12T11:36:55.121Z,46.83
2023-05-12T11:37:55.111Z,46.33
2023-05-12T11:38:55.114Z,45.11
2023-05-12T11:39:55.087Z,45.39
2023-05-12T11:40:55.072Z,45.71
2023-05-12T11:42:05.501Z,45.90
2023-05-12T11:42:57.088Z,45.09
2023-05-12T11:43:55.043Z,43.96
2023-05-12T11:44:55.127Z,43.42
2023-05-12T11:45:55.017Z,42.66
2023-05-12T11:46:55.011Z,42.35
2023-05-12T11:47:56.126Z,41.87
2023-05-12T11:48:54.992Z,40.68
2023-05-12T11:49:55.012Z,41.79
2023-05-12T11:50:54.997Z,41.95
2023-05-12T11:51:54.987Z,42.54
2023-05-12T11:52:54.974Z,41.00
2023-05-12T11:53:54.940Z,40.70
2023-05-12T11:54:54.938Z,39.12
2023-05-12T11:55:54.944Z,39.36
2023-05-12T11:56:54.940Z,40.41
2023-05-12T11:57:54.897Z,40.94
2023-05-12T11:58:54.913Z,41.66
2023-05-12T11:59:54.905Z,42.05
2023-05-12T12:00:54.888Z,41.77
2023-05-12T12:01:54.859Z,41.77
2023-05-12T12:02:54.990Z,41.16
2023-05-12T12:03:54.956Z,40.68
2023-05-12T12:04:54.828Z,40.76
2023-05-12T12:05:54.819Z,39.67
2023-05-12T12:06:54.830Z,39.45
2023-05-12T12:07:54.805Z,39.21
2023-05-12T12:08:54.813Z,38.79
2023-05-12T12:09:54.784Z,39.09
2023-05-12T12:10:54.796Z,39.69
2023-05-12T12:11:54.765Z,40.58
2023-05-12T12:12:54.795Z,43.48
2023-05-12T12:13:54.751Z,44.45
2023-05-12T12:14:54.722Z,46.26
2023-05-12T12:15:54.720Z,46.24
2023-05-12T12:16:54.722Z,42.86
2023-05-12T12:17:54.773Z,41.36
2023-05-12T12:18:54.716Z,40.15
2023-05-12T12:19:54.682Z,38.46
2023-05-12T12:20:54.688Z,39.36
2023-05-12T12:21:54.755Z,38.64
2023-05-12T12:22:54.674Z,38.44
2023-05-12T12:23:54.701Z,38.23
2023-05-12T12:24:54.613Z,37.81
2023-05-12T12:25:54.640Z,37.49
2023-05-12T12:26:54.613Z,37.22
2023-05-12T12:27:54.633Z,36.49
2023-05-12T12:28:54.617Z,35.07
2023-05-12T12:29:54.597Z,33.36
2023-05-12T12:30:54.645Z,35.04
2023-05-12T12:31:54.581Z,36.46
2023-05-12T12:32:54.612Z,36.57
2023-05-12T12:33:54.555Z,36.37
2023-05-12T12:34:54.527Z,36.39
2023-05-12T12:35:54.586Z,36.10
2023-05-12T12:36:54.725Z,36.29
2023-05-12T12:37:54.538Z,36.79
2023-05-12T12:38:54.508Z,36.37
2023-05-12T12:39:54.500Z,35.58
2023-05-12T12:40:54.528Z,36.19
2023-05-12T12:41:54.514Z,35.63
2023-05-12T12:42:54.489Z,35.24
2023-05-12T12:43:54.594Z,36.74
2023-05-12T12:44:54.467Z,37.34
2023-05-12T12:45:54.543Z,37.24
2023-05-12T12:46:54.445Z,36.84
2023-05-12T12:47:54.453Z,37.04
2023-05-12T12:48:54.441Z,37.05
2023-05-12T12:49:54.430Z,37.26
2023-05-12T12:50:54.351Z,36.80
2023-05-12T12:51:54.382Z,34.89
2023-05-12T12:52:54.397Z,35.05
2023-05-12T12:53:54.371Z,35.64